Time;durP1;ratioP1;P1;durP2;ratioP2;P2;SDS_P1;SDS_P2;PMS_P1;PMS_P2;Temp;Humidity;BMP_temperature;BMP_pressure;BME280_temperature;BME280_humidity;BME280_pressure;Samples;Min_cycle;Max_cycle;Signal;HPM_P1;HPM_P2
2021/01/05 00:02:24;;;;;;;19.07;11.50;;;;;;;2.88;61.42;95996.78;5066890;28;21004;-66
2021/01/05 00:04:50;;;;;;;20.17;12.00;;;;;;;3.02;61.23;95993.00;5073862;28;20468;-68
2021/01/05 00:07:16;;;;;;;18.57;11.70;;;;;;;2.84;61.77;95993.66;5073749;28;20213;-66
2021/01/05 00:09:42;;;;;;;18.50;11.97;;;;;;;3.16;60.91;95992.59;5073876;28;20831;-67
2021/01/05 00:12:10;;;;;;;21.57;11.30;;;;;;;2.94;61.50;95992.84;5070658;28;20468;-67
2021/01/05 00:14:40;;;;;;;18.60;11.70;;;;;;;2.87;61.93;95982.22;5072039;28;20689;-66
2021/01/05 00:17:06;;;;;;;16.90;10.87;;;;;;;3.04;61.43;95991.06;5071286;28;20405;-67
2021/01/05 00:19:32;;;;;;;20.93;12.30;;;;;;;3.00;61.77;95992.31;5073327;28;20416;-69
2021/01/05 00:21:58;;;;;;;20.90;11.70;;;;;;;2.99;61.37;95995.84;5071607;28;20425;-68
2021/01/05 00:24:23;;;;;;;20.17;11.83;;;;;;;2.93;61.81;95997.22;5072755;28;20437;-66
2021/01/05 00:26:49;;;;;;;21.63;13.13;;;;;;;2.76;62.47;95996.09;5072228;28;20208;-68
2021/01/05 00:29:15;;;;;;;23.63;12.40;;;;;;;2.76;62.52;96001.28;5072047;28;20262;-66
2021/01/05 00:31:40;;;;;;;24.40;14.20;;;;;;;2.28;64.07;95993.22;5069442;28;20561;-71
2021/01/05 00:34:07;;;;;;;23.93;13.67;;;;;;;2.61;63.04;95998.22;5072795;28;20268;-66
2021/01/05 00:36:34;;;;;;;24.83;13.77;;;;;;;2.67;63.10;95999.47;5054190;28;20603;-67
2021/01/05 00:38:59;;;;;;;21.67;13.20;;;;;;;2.51;64.13;95997.38;5037863;28;20425;-66
2021/01/05 00:41:25;;;;;;;23.73;14.00;;;;;;;2.36;64.26;96000.31;5036337;28;20410;-65
2021/01/05 00:43:51;;;;;;;22.03;13.97;;;;;;;2.42;64.15;96004.16;5054559;28;20221;-67
2021/01/05 00:46:18;;;;;;;25.30;13.60;;;;;;;2.59;63.75;96008.72;5068783;28;20178;-68
2021/01/05 00:48:44;;;;;;;22.70;13.83;;;;;;;2.45;64.15;96006.47;5071770;28;20182;-68
2021/01/05 00:51:12;;;;;;;29.30;15.07;;;;;;;2.58;63.78;96012.25;5072446;28;20811;-67
2021/01/05 00:53:38;;;;;;;26.27;14.90;;;;;;;2.71;63.29;96009.41;5072292;28;20435;-67
2021/01/05 00:56:04;;;;;;;26.97;14.87;;;;;;;2.66;63.59;96013.34;5069984;28;20983;-65
2021/01/05 00:58:30;;;;;;;25.60;15.00;;;;;;;2.89;62.89;96011.38;5072116;28;20186;-68
2021/01/05 01:00:56;;;;;;;26.17;14.70;;;;;;;2.74;63.05;96010.94;5054082;28;20520;-66
2021/01/05 01:03:22;;;;;;;25.80;14.77;;;;;;;2.80;63.38;96012.97;5069071;28;20637;-66
2021/01/05 01:05:49;;;;;;;26.37;13.93;;;;;;;2.85;63.05;96020.34;5068363;28;20436;-69
2021/01/05 01:08:16;;;;;;;25.83;15.03;;;;;;;2.81;63.22;96018.97;5071150;28;20421;-67
2021/01/05 01:10:42;;;;;;;33.27;16.47;;;;;;;2.71;63.62;96012.00;5071311;28;20441;-69
2021/01/05 01:13:08;;;;;;;27.57;14.90;;;;;;;2.65;64.02;96016.91;5071252;28;20451;-68
2021/01/05 01:15:34;;;;;;;22.83;14.07;;;;;;;2.76;63.76;96009.84;5069321;28;20441;-70
2021/01/05 01:18:01;;;;;;;23.77;14.83;;;;;;;2.95;63.23;96012.59;5063443;28;20425;-66
2021/01/05 01:20:26;;;;;;;27.27;15.03;;;;;;;2.99;62.70;96012.19;5053961;28;20840;-67
2021/01/05 01:22:55;;;;;;;25.77;14.63;;;;;;;2.85;63.31;96016.00;5071098;28;20420;-66
2021/01/05 01:25:21;;;;;;;25.43;14.50;;;;;;;3.03;62.98;96017.91;5054895;28;20222;-65
2021/01/05 01:27:47;;;;;;;29.00;15.50;;;;;;;2.91;63.45;96023.22;5071213;28;20428;-67
2021/01/05 01:30:13;;;;;;;30.33;15.40;;;;;;;2.70;63.80;96012.97;5069495;28;20192;-67
2021/01/05 01:32:39;;;;;;;26.10;15.80;;;;;;;2.68;64.43;96017.47;5068534;28;20182;-66
2021/01/05 01:35:06;;;;;;;27.93;15.80;;;;;;;2.69;65.05;96020.84;5071413;28;20519;-67
2021/01/05 01:37:32;;;;;;;25.90;16.10;;;;;;;2.36;65.88;96010.66;5070093;28;20459;-67
2021/01/05 01:39:58;;;;;;;33.87;16.43;;;;;;;2.55;65.30;96014.28;5069674;28;20421;-67
2021/01/05 01:42:24;;;;;;;29.33;16.30;;;;;;;2.88;64.49;96015.75;5070001;28;20209;-66
2021/01/05 01:44:50;;;;;;;29.37;17.60;;;;;;;2.53;65.29;96011.81;5068412;28;20214;-65
2021/01/05 01:47:28;;;;;;;28.37;15.83;;;;;;;2.59;65.58;96016.47;5073021;28;20765;-66
2021/01/05 01:49:57;;;;;;;27.13;15.13;;;;;;;2.76;64.90;96007.25;5069144;28;20492;-66
2021/01/05 01:52:51;;;;;;;31.93;16.57;;;;;;;2.59;65.19;96010.47;5071313;28;20457;-68
2021/01/05 01:55:36;;;;;;;31.27;16.40;;;;;;;2.85;64.66;96010.81;5056987;28;20433;-66
2021/01/05 01:58:14;;;;;;;25.57;15.77;;;;;;;2.87;64.64;96019.28;5068916;28;20519;-67
2021/01/05 02:00:46;;;;;;;27.63;15.60;;;;;;;2.60;65.67;96022.44;5070544;28;20421;-68
2021/01/05 02:03:23;;;;;;;27.40;16.13;;;;;;;2.51;65.59;96020.66;5055389;28;20417;-67
2021/01/05 02:05:55;;;;;;;32.03;17.03;;;;;;;2.60;65.86;96022.44;5070120;28;20466;-66
2021/01/05 02:08:33;;;;;;;29.10;15.90;;;;;;;2.69;65.29;96026.03;5069338;28;20421;-65
2021/01/05 02:11:11;;;;;;;31.80;17.00;;;;;;;2.60;65.99;96012.94;5052961;28;20445;-66
2021/01/05 02:13:49;;;;;;;25.70;15.43;;;;;;;2.61;65.61;96024.09;5071171;28;20413;-67
2021/01/05 02:16:24;;;;;;;28.33;16.60;;;;;;;2.92;64.91;96019.66;5056048;28;20417;-67
2021/01/05 02:19:00;;;;;;;25.80;15.13;;;;;;;3.06;64.75;96015.91;5069844;28;20427;-67
2021/01/05 02:21:32;;;;;;;29.30;15.83;;;;;;;3.20;63.61;96013.88;5069565;28;20421;-66
2021/01/05 02:24:37;;;;;;;26.17;14.83;;;;;;;3.19;63.92;96007.84;5069436;28;20788;-67
2021/01/05 02:27:10;;;;;;;22.37;13.50;;;;;;;3.16;63.66;96007.31;5072386;28;20428;-65
2021/01/05 02:29:43;;;;;;;24.83;14.23;;;;;;;3.31;63.11;96007.72;5075414;28;20425;-65
2021/01/05 02:32:47;;;;;;;25.77;14.47;;;;;;;3.32;62.76;95999.84;5061078;28;20456;-66
2021/01/05 02:35:50;;;;;;;23.03;14.03;;;;;;;3.32;62.93;95991.22;5058746;28;20573;-64
2021/01/05 02:38:32;;;;;;;22.10;13.70;;;;;;;3.27;62.73;95996.81;5059481;28;20434;-67
2021/01/05 02:41:46;;;;;;;26.37;14.60;;;;;;;3.08;62.71;96002.81;5054990;28;20414;-66
2021/01/05 02:44:29;;;;;;;25.17;15.10;;;;;;;3.12;62.92;95999.00;5039734;28;20469;-66
2021/01/05 02:47:04;;;;;;;25.63;14.20;;;;;;;3.02;63.72;95995.59;5070609;28;20420;-66
2021/01/05 02:49:47;;;;;;;26.93;15.33;;;;;;;2.98;63.60;95999.41;5073652;28;20459;-66
2021/01/05 02:52:35;;;;;;;29.23;15.37;;;;;;;3.24;63.31;95994.50;5058786;28;20488;-66
2021/01/05 02:55:09;;;;;;;28.63;15.37;;;;;;;3.30;62.87;95987.94;5074017;28;21024;-66
2021/01/05 02:57:51;;;;;;;27.33;14.03;;;;;;;3.11;62.70;95983.59;5078412;28;20446;-67
2021/01/05 03:00:25;;;;;;;25.67;14.37;;;;;;;2.94;63.63;95982.50;5068321;28;20412;-64
2021/01/05 03:03:28;;;;;;;45.97;18.93;;;;;;;2.90;63.69;95993.09;5075183;28;20424;-66
2021/01/05 03:06:33;;;;;;;24.43;13.70;;;;;;;2.65;64.63;95988.44;5075767;28;20440;-67
2021/01/05 03:09:23;;;;;;;35.57;15.93;;;;;;;2.52;65.32;95973.97;5018166;28;20446;-68
2021/01/05 03:12:19;;;;;;;26.23;14.70;;;;;;;2.47;64.86;95983.91;5016764;28;20469;-63
2021/01/05 03:14:59;;;;;;;29.00;16.37;;;;;;;2.32;65.75;95982.63;5015799;28;20477;-67
2021/01/05 03:17:30;;;;;;;28.80;15.50;;;;;;;2.21;66.61;95986.09;5016754;28;20462;-66
2021/01/05 03:20:15;;;;;;;27.30;14.80;;;;;;;2.29;66.42;95984.50;5015966;28;20425;-67
2021/01/05 03:22:56;;;;;;;26.97;15.87;;;;;;;2.11;67.18;95986.09;5031924;28;20479;-68
2021/01/05 03:25:24;;;;;;;30.27;16.00;;;;;;;2.14;67.04;95985.84;5025008;28;20453;-66
2021/01/05 03:27:51;;;;;;;29.70;15.83;;;;;;;2.25;66.80;95993.50;5031297;28;20430;-66
2021/01/05 03:30:26;;;;;;;31.07;16.97;;;;;;;2.25;66.71;95988.31;5015563;28;20485;-68
2021/01/05 03:32:52;;;;;;;31.73;17.03;;;;;;;2.22;66.81;95986.00;5031437;28;20438;-66
2021/01/05 03:35:17;;;;;;;33.77;17.67;;;;;;;2.46;66.59;95993.41;5031628;28;20941;-67
2021/01/05 03:37:43;;;;;;;35.30;18.13;;;;;;;2.32;66.70;95987.78;5030233;28;20528;-66
2021/01/05 03:40:09;;;;;;;34.60;17.60;;;;;;;2.34;67.06;95998.81;5023336;28;20195;-67
2021/01/05 03:42:36;;;;;;;39.10;18.17;;;;;;;2.22;67.41;95988.56;5033136;28;20518;-66
2021/01/05 03:45:04;;;;;;;41.93;20.00;;;;;;;2.38;67.03;95989.88;5051437;28;20463;-66
2021/01/05 03:47:30;;;;;;;47.40;20.70;;;;;;;2.08;68.00;95992.31;5059191;28;20424;-66
2021/01/05 03:49:55;;;;;;;38.93;20.73;;;;;;;1.90;69.29;95993.88;5073382;28;20477;-68
2021/01/05 03:52:23;;;;;;;49.03;22.10;;;;;;;2.01;69.01;95990.41;5073378;28;20210;-68
2021/01/05 03:54:51;;;;;;;42.20;21.20;;;;;;;2.34;68.53;95993.66;5071875;28;20657;-66
2021/01/05 03:57:17;;;;;;;43.90;21.37;;;;;;;2.47;67.68;95989.06;5071711;28;20421;-67
2021/01/05 03:59:43;;;;;;;42.10;21.40;;;;;;;2.47;67.67;95994.25;5064826;28;20421;-66
2021/01/05 04:02:09;;;;;;;46.30;22.33;;;;;;;2.10;69.01;95984.44;5055023;28;20946;-67
2021/01/05 04:04:35;;;;;;;47.90;23.50;;;;;;;2.27;68.96;95989.00;5072676;28;20448;-66
2021/01/05 04:07:01;;;;;;;47.00;23.50;;;;;;;2.58;68.04;95995.91;5072797;28;20420;-67
2021/01/05 04:09:26;;;;;;;49.30;22.33;;;;;;;2.75;67.25;95997.84;5072954;28;20228;-68
2021/01/05 04:11:52;;;;;;;45.77;23.20;;;;;;;2.34;68.78;95996.25;5072480;28;20198;-66
2021/01/05 04:14:18;;;;;;;50.10;23.20;;;;;;;2.69;68.00;95998.41;5072845;28;20718;-66
2021/01/05 04:16:47;;;;;;;44.17;22.00;;;;;;;2.49;67.76;96004.44;5051024;28;20204;-68
2021/01/05 04:19:14;;;;;;;49.17;22.80;;;;;;;2.57;68.60;96002.03;5072885;28;20197;-67
2021/01/05 04:21:39;;;;;;;43.97;22.00;;;;;;;2.47;68.34;96002.00;5072155;28;20424;-69
2021/01/05 04:24:06;;;;;;;43.33;22.70;;;;;;;2.49;68.43;95997.53;5070915;28;20421;-68
2021/01/05 04:26:33;;;;;;;45.20;23.93;;;;;;;2.48;68.45;95995.88;5062513;28;20179;-66
2021/01/05 04:28:59;;;;;;;44.10;23.17;;;;;;;2.15;70.09;95992.63;5054592;28;20424;-67
2021/01/05 04:31:25;;;;;;;44.60;22.20;;;;;;;2.13;70.47;95991.94;5069423;28;20535;-65
2021/01/05 04:33:51;;;;;;;46.97;22.93;;;;;;;2.41;69.65;95989.59;5072435;28;20561;-67
2021/01/05 04:36:16;;;;;;;46.10;23.90;;;;;;;1.99;70.61;95990.50;5016950;28;20441;-67
2021/01/05 04:38:42;;;;;;;45.50;22.87;;;;;;;2.61;69.56;95991.28;5017801;28;20665;-68
2021/01/05 04:41:16;;;;;;;48.87;24.03;;;;;;;2.25;69.98;95992.66;5050491;28;20276;-68
2021/01/05 04:43:55;;;;;;;51.17;23.17;;;;;;;2.54;69.26;96000.50;5051132;28;20203;-65
2021/01/05 04:46:26;;;;;;;42.30;22.13;;;;;;;2.78;68.50;95993.38;5027593;28;20436;-64
2021/01/05 04:49:32;;;;;;;47.77;23.53;;;;;;;2.54;69.25;95997.94;5050678;28;20429;-66
2021/01/05 04:52:12;;;;;;;49.67;22.57;;;;;;;2.70;69.14;96006.97;5050282;28;20457;-66
2021/01/05 04:54:45;;;;;;;44.60;23.17;;;;;;;2.56;69.18;96010.75;5053481;28;20438;-66
2021/01/05 04:57:17;;;;;;;44.87;22.63;;;;;;;2.74;69.28;96008.34;5042512;28;20423;-68
2021/01/05 05:00:05;;;;;;;46.87;23.00;;;;;;;2.71;68.59;96003.44;5051141;28;20440;-67
2021/01/05 05:02:31;;;;;;;47.63;23.80;;;;;;;2.64;68.95;96012.69;5050821;28;20524;-66
2021/01/05 05:05:16;;;;;;;42.03;22.00;;;;;;;2.95;68.25;96021.19;5050648;28;20887;-67
2021/01/05 05:08:02;;;;;;;50.70;23.60;;;;;;;3.00;68.07;96016.41;5047564;28;20198;-67
2021/01/05 05:10:38;;;;;;;47.27;23.63;;;;;;;2.51;69.43;96013.72;5045541;28;20425;-67
2021/01/05 05:13:15;;;;;;;48.07;24.73;;;;;;;2.28;70.92;96016.47;5050028;28;20897;-66
2021/01/05 05:15:47;;;;;;;52.43;24.50;;;;;;;2.49;70.60;96015.63;5033749;28;20457;-65
2021/01/05 05:18:25;;;;;;;47.40;23.30;;;;;;;2.46;70.25;96019.28;5042903;28;20789;-65
2021/01/05 05:21:13;;;;;;;46.23;22.30;;;;;;;2.52;70.73;96017.13;5050663;28;20967;-66
2021/01/05 05:24:13;;;;;;;43.40;23.33;;;;;;;2.74;69.91;96024.69;5055427;28;20495;-67
2021/01/05 05:26:59;;;;;;;45.40;24.43;;;;;;;2.48;70.80;96021.75;5054156;28;20465;-66
2021/01/05 05:29:46;;;;;;;49.27;23.83;;;;;;;2.89;69.75;96027.72;5045582;28;20430;-67
2021/01/05 05:32:34;;;;;;;48.67;24.00;;;;;;;2.66;70.37;96026.28;5046502;28;20531;-65
2021/01/05 05:35:03;;;;;;;40.93;22.33;;;;;;;2.60;70.81;96025.88;5049912;28;20527;-66
2021/01/05 05:37:42;;;;;;;45.73;25.27;;;;;;;2.06;72.79;96024.41;5045894;28;20796;-66
2021/01/05 05:40:27;;;;;;;51.77;26.03;;;;;;;2.45;72.48;96032.34;5030922;28;20437;-67
2021/01/05 05:43:06;;;;;;;47.07;23.03;;;;;;;2.92;70.57;96037.78;5052516;28;20943;-64
2021/01/05 05:46:18;;;;;;;43.73;22.60;;;;;;;3.25;69.66;96042.75;5049764;28;20499;-69
2021/01/05 05:48:54;;;;;;;48.90;23.63;;;;;;;3.20;69.26;96044.94;5053735;28;20437;-66
2021/01/05 05:51:27;;;;;;;45.07;22.00;;;;;;;3.40;68.76;96045.78;5049851;28;20548;-66
2021/01/05 05:53:55;;;;;;;42.97;22.77;;;;;;;2.90;69.51;96044.88;5049913;28;20426;-67
2021/01/05 05:56:47;;;;;;;42.87;22.97;;;;;;;2.97;69.55;96041.75;5033086;28;20920;-66
2021/01/05 05:59:15;;;;;;;47.07;22.70;;;;;;;3.12;69.04;96058.56;5044346;28;20438;-67
2021/01/05 06:01:40;;;;;;;40.17;22.30;;;;;;;3.28;68.37;96060.63;5048312;28;20932;-66
2021/01/05 06:04:10;;;;;;;42.43;21.93;;;;;;;3.32;68.25;96059.41;5051029;28;20424;-66
2021/01/05 06:06:37;;;;;;;44.63;22.70;;;;;;;3.51;68.11;96060.34;5045500;28;20585;-66
2021/01/05 06:09:04;;;;;;;45.07;21.47;;;;;;;3.35;67.92;96060.88;5068962;28;20507;-67
2021/01/05 06:11:33;;;;;;;43.73;21.30;;;;;;;3.52;67.89;96057.63;5061836;28;20557;-66
2021/01/05 06:14:02;;;;;;;43.63;22.87;;;;;;;3.54;67.54;96068.66;5051090;28;20490;-68
2021/01/05 06:16:32;;;;;;;49.10;21.80;;;;;;;3.52;67.77;96068.00;5050420;28;20434;-66
2021/01/05 06:18:58;;;;;;;45.40;22.77;;;;;;;3.38;68.10;96073.56;5050281;28;20418;-67
2021/01/05 06:21:23;;;;;;;43.50;22.40;;;;;;;3.30;68.07;96081.19;5049470;28;20865;-66
2021/01/05 06:23:49;;;;;;;39.83;22.10;;;;;;;3.31;68.15;96077.66;5050607;28;20704;-66
2021/01/05 06:26:19;;;;;;;42.20;21.40;;;;;;;3.22;68.03;96074.09;5032978;28;20198;-66
2021/01/05 06:28:47;;;;;;;44.63;22.43;;;;;;;3.22;68.53;96077.50;5050967;28;20186;-67
2021/01/05 06:31:13;;;;;;;44.60;22.83;;;;;;;3.28;68.83;96085.66;5050568;28;20489;-67
2021/01/05 06:33:38;;;;;;;43.00;23.20;;;;;;;2.82;69.92;96075.78;5049778;28;20476;-66
2021/01/05 06:36:04;;;;;;;42.63;23.47;;;;;;;2.47;71.70;96069.25;5042316;28;20226;-68
2021/01/05 06:38:30;;;;;;;54.67;24.70;;;;;;;2.55;71.70;96072.00;5052064;28;20270;-67
2021/01/05 06:40:56;;;;;;;47.47;24.20;;;;;;;2.42;72.39;96079.16;5052046;28;20461;-68
2021/01/05 06:43:22;;;;;;;47.83;23.33;;;;;;;2.56;71.74;96081.41;5051036;28;20480;-67
2021/01/05 06:45:48;;;;;;;46.63;24.70;;;;;;;2.57;71.98;96077.88;5053407;28;20269;-69
2021/01/05 06:48:13;;;;;;;50.30;24.90;;;;;;;2.49;72.31;96079.44;5053662;28;20279;-68
2021/01/05 06:50:39;;;;;;;49.73;25.10;;;;;;;2.72;71.40;96082.69;5062183;28;20193;-65
2021/01/05 06:53:05;;;;;;;50.37;25.03;;;;;;;2.81;70.82;96084.47;5069723;28;20183;-68
2021/01/05 06:55:30;;;;;;;60.73;25.50;;;;;;;2.59;72.00;96091.50;5064671;28;20284;-67
2021/01/05 06:57:56;;;;;;;48.30;23.97;;;;;;;2.52;72.15;96092.13;5068300;28;20183;-67
2021/01/05 07:00:24;;;;;;;47.43;24.80;;;;;;;2.71;72.34;96091.41;5070974;28;20577;-67
2021/01/05 07:02:51;;;;;;;57.00;26.00;;;;;;;2.56;72.30;96083.97;5070940;28;20178;-68
2021/01/05 07:05:17;;;;;;;49.97;24.33;;;;;;;2.44;72.99;96085.84;5069807;28;20509;-69
2021/01/05 07:07:44;;;;;;;62.13;26.20;;;;;;;2.42;72.85;96084.31;5070581;28;20432;-65
2021/01/05 07:10:11;;;;;;;50.27;24.77;;;;;;;2.66;72.61;96093.53;5052678;28;20424;-65
2021/01/05 07:12:37;;;;;;;53.30;24.20;;;;;;;2.69;72.64;96085.53;5073295;28;20463;-65
2021/01/05 07:15:05;;;;;;;52.27;25.40;;;;;;;2.50;73.03;96079.34;5073504;28;20440;-67
2021/01/05 07:17:30;;;;;;;50.57;24.43;;;;;;;2.35;73.94;96083.22;5074118;28;20420;-67
2021/01/05 07:19:56;;;;;;;47.07;23.73;;;;;;;2.42;73.52;96082.56;5060560;28;20431;-69
2021/01/05 07:22:22;;;;;;;56.70;25.57;;;;;;;1.93;75.90;96086.66;5074125;28;20181;-66
2021/01/05 07:24:47;;;;;;;53.30;25.33;;;;;;;2.16;74.85;96095.06;5072886;28;20730;-67
2021/01/05 07:27:13;;;;;;;61.83;27.53;;;;;;;2.01;75.12;96089.41;5073989;28;20186;-66
2021/01/05 07:29:39;;;;;;;54.83;27.80;;;;;;;1.97;75.80;96088.84;5074623;28;20537;-67
2021/01/05 07:32:05;;;;;;;49.27;24.97;;;;;;;2.26;74.84;96097.72;5069805;28;20213;-66
2021/01/05 07:34:32;;;;;;;60.67;27.27;;;;;;;2.40;74.57;96089.63;5073484;28;20207;-66
2021/01/05 07:37:01;;;;;;;57.93;26.43;;;;;;;2.06;75.27;96091.63;5073555;28;20460;-67
2021/01/05 07:39:27;;;;;;;57.77;28.23;;;;;;;2.27;75.05;96096.78;5072813;28;20760;-65
2021/01/05 07:42:14;;;;;;;55.97;27.17;;;;;;;2.50;74.88;96099.19;5072068;28;20432;-67
2021/01/05 07:44:41;;;;;;;58.97;26.90;;;;;;;2.40;74.74;96099.16;5074245;28;20452;-66
2021/01/05 07:47:07;;;;;;;55.93;25.30;;;;;;;2.87;73.66;96096.06;5055972;28;20420;-67
2021/01/05 07:49:33;;;;;;;61.80;26.70;;;;;;;2.72;72.83;96095.63;5042411;28;20974;-66
2021/01/05 07:51:59;;;;;;;51.70;23.60;;;;;;;2.62;73.35;96103.34;5072891;28;20449;-66
2021/01/05 07:54:24;;;;;;;51.70;26.67;;;;;;;2.42;74.67;96103.25;5073111;28;20448;-67
2021/01/05 07:56:50;;;;;;;58.57;27.03;;;;;;;2.39;74.75;96100.94;5071967;28;20186;-68
2021/01/05 07:59:18;;;;;;;55.80;25.97;;;;;;;2.32;75.08;96091.22;5072523;28;20197;-66
2021/01/05 08:01:48;;;;;;;57.33;26.80;;;;;;;2.69;73.80;96095.88;5065747;28;20241;-67
2021/01/05 08:04:13;;;;;;;52.13;25.47;;;;;;;2.53;74.46;96094.59;5073961;28;20439;-66
2021/01/05 08:06:42;;;;;;;47.40;24.60;;;;;;;2.64;73.97;96103.22;5073629;28;20420;-65
2021/01/05 08:09:09;;;;;;;46.50;23.33;;;;;;;2.56;73.62;96104.69;5072578;28;20269;-66
2021/01/05 08:11:37;;;;;;;46.50;23.00;;;;;;;2.25;75.80;96098.66;5073652;28;20543;-68
2021/01/05 08:14:03;;;;;;;48.30;25.20;;;;;;;2.41;74.95;96101.63;5073038;28;20425;-66
2021/01/05 08:16:29;;;;;;;41.90;23.40;;;;;;;2.82;73.75;96104.25;5073852;28;20424;-66
2021/01/05 08:18:54;;;;;;;47.53;23.83;;;;;;;2.86;73.69;96100.44;5059144;28;20492;-66
2021/01/05 08:21:26;;;;;;;43.97;23.27;;;;;;;2.92;73.32;96102.50;5073950;28;20582;-66
2021/01/05 08:23:52;;;;;;;41.80;23.40;;;;;;;2.90;72.92;96106.97;5071495;28;20213;-66
2021/01/05 08:26:18;;;;;;;44.70;23.20;;;;;;;2.18;75.77;96098.34;5073310;28;20428;-65
2021/01/05 08:28:47;;;;;;;45.70;23.73;;;;;;;1.98;75.76;96105.16;5064276;28;20432;-69
2021/01/05 08:31:14;;;;;;;40.03;20.53;;;;;;;2.44;74.96;96101.38;5068748;28;20214;-68
2021/01/05 08:33:40;;;;;;;38.87;21.03;;;;;;;2.58;74.71;96102.78;5072510;28;20456;-67
2021/01/05 08:36:07;;;;;;;33.17;19.40;;;;;;;2.41;74.15;96100.78;5072863;28;20456;-68
2021/01/05 08:38:33;;;;;;;35.47;20.20;;;;;;;2.21;75.93;96099.84;5071522;28;20232;-67
2021/01/05 08:40:58;;;;;;;44.37;22.03;;;;;;;2.51;74.35;96106.00;5071511;28;20445;-68
2021/01/05 08:43:24;;;;;;;40.67;21.10;;;;;;;2.51;75.18;96096.50;5073017;28;20229;-67
2021/01/05 08:45:50;;;;;;;41.60;21.80;;;;;;;2.82;73.90;96099.06;5072885;28;20260;-65
2021/01/05 08:48:16;;;;;;;41.83;21.67;;;;;;;3.00;73.42;96103.63;5065159;28;20555;-65
2021/01/05 08:50:41;;;;;;;49.50;22.60;;;;;;;2.79;73.60;96103.69;5065385;28;20194;-67
2021/01/05 08:53:10;;;;;;;37.90;19.77;;;;;;;2.79;73.95;96101.09;5071822;28;20185;-69
2021/01/05 08:55:41;;;;;;;49.20;22.90;;;;;;;2.78;74.02;96100.25;5073203;28;20313;-68
2021/01/05 08:58:07;;;;;;;45.37;20.80;;;;;;;3.02;73.20;96094.78;5071480;28;20421;-68
2021/01/05 09:00:33;;;;;;;36.10;18.90;;;;;;;2.98;72.28;96098.56;5072903;28;20423;-66
2021/01/05 09:02:59;;;;;;;32.40;18.83;;;;;;;3.16;72.71;96103.91;5072133;28;20431;-66
2021/01/05 09:05:25;;;;;;;33.50;19.00;;;;;;;2.81;73.93;96101.78;5070199;28;20441;-67
2021/01/05 09:07:51;;;;;;;33.10;19.63;;;;;;;2.86;73.58;96099.63;5071633;28;20198;-66
2021/01/05 09:10:22;;;;;;;34.17;20.53;;;;;;;2.42;74.18;96099.84;5072692;28;20181;-67
2021/01/05 09:12:48;;;;;;;31.40;17.70;;;;;;;2.30;75.36;96101.69;5071135;28;20480;-67
2021/01/05 09:15:16;;;;;;;33.53;19.50;;;;;;;2.33;75.38;96098.88;5074283;28;20448;-67
2021/01/05 09:17:43;;;;;;;31.00;18.30;;;;;;;2.47;75.19;96100.28;5073441;28;20420;-67
2021/01/05 09:20:22;;;;;;;34.70;18.63;;;;;;;2.94;74.25;96104.13;5072976;28;20421;-68
2021/01/05 09:22:49;;;;;;;34.93;19.50;;;;;;;2.69;74.26;96095.88;5075119;28;20425;-68
2021/01/05 09:25:15;;;;;;;33.37;19.33;;;;;;;2.57;74.46;96102.94;5084858;28;20456;-68
2021/01/05 09:27:41;;;;;;;37.60;21.60;;;;;;;2.46;74.80;96104.63;5042899;28;20428;-67
2021/01/05 09:30:09;;;;;;;36.80;19.03;;;;;;;2.83;74.21;96110.25;5072195;28;20408;-68
2021/01/05 09:32:35;;;;;;;34.30;19.93;;;;;;;3.19;73.02;96105.44;5070782;28;20206;-67
2021/01/05 09:35:03;;;;;;;33.40;19.57;;;;;;;3.21;72.63;96112.13;5054074;28;20469;-68
2021/01/05 09:37:29;;;;;;;34.03;19.67;;;;;;;3.13;71.97;96111.97;5073083;28;20429;-67
2021/01/05 09:39:55;;;;;;;36.37;19.30;;;;;;;3.42;71.80;96108.59;5072308;28;20412;-67
2021/01/05 09:42:21;;;;;;;34.53;18.83;;;;;;;3.36;71.70;96111.75;5071690;28;20285;-68
2021/01/05 09:44:46;;;;;;;32.80;19.17;;;;;;;3.03;72.20;96105.94;5072101;28;20631;-65
2021/01/05 09:47:18;;;;;;;37.23;20.50;;;;;;;3.14;72.51;96117.97;5070845;28;20417;-67
2021/01/05 09:49:43;;;;;;;32.73;20.40;;;;;;;2.98;72.74;96118.47;5055950;28;20182;-69
2021/01/05 09:52:09;;;;;;;30.60;18.53;;;;;;;3.30;72.27;96125.22;5055913;28;20460;-67
2021/01/05 09:54:35;;;;;;;32.50;18.47;;;;;;;3.45;71.44;96120.47;5073727;28;20225;-67
2021/01/05 09:57:00;;;;;;;33.80;19.37;;;;;;;3.11;72.31;96119.06;5073253;28;20596;-67
2021/01/05 09:59:26;;;;;;;33.63;19.73;;;;;;;3.40;72.29;96120.06;5072735;28;20190;-66
2021/01/05 10:01:54;;;;;;;35.07;20.23;;;;;;;3.55;71.34;96116.13;5074277;28;20213;-65
2021/01/05 10:04:20;;;;;;;36.80;19.63;;;;;;;3.07;71.83;96117.66;5073101;28;20436;-68
2021/01/05 10:06:46;;;;;;;36.13;20.30;;;;;;;2.60;74.48;96116.41;5070180;28;20457;-67
2021/01/05 10:09:12;;;;;;;33.97;19.20;;;;;;;2.74;74.55;96120.41;5071759;28;20787;-67
2021/01/05 10:11:47;;;;;;;36.23;20.53;;;;;;;3.23;72.67;96118.00;5072697;28;20285;-67
2021/01/05 10:14:16;;;;;;;37.63;19.90;;;;;;;3.50;72.06;96113.13;5072122;28;20535;-68
2021/01/05 10:16:42;;;;;;;35.80;21.20;;;;;;;3.59;71.66;96111.50;5072510;28;20417;-67
2021/01/05 10:19:10;;;;;;;35.70;20.13;;;;;;;3.53;71.82;96113.66;5057341;28;20506;-66
2021/01/05 10:21:38;;;;;;;40.10;21.30;;;;;;;3.60;71.26;96107.94;5062556;28;20990;-68
2021/01/05 10:24:06;;;;;;;37.40;19.53;;;;;;;3.33;72.58;96104.22;5070966;28;20444;-68
2021/01/05 10:26:33;;;;;;;36.80;20.93;;;;;;;3.02;73.15;96102.53;5070945;28;20427;-68
2021/01/05 10:28:59;;;;;;;35.03;19.97;;;;;;;3.03;73.14;96098.16;5071808;28;20413;-68
2021/01/05 10:31:25;;;;;;;34.60;20.17;;;;;;;2.94;73.71;96104.13;5063469;28;20448;-65
2021/01/05 10:33:51;;;;;;;39.00;20.80;;;;;;;3.53;72.32;96108.47;5062052;28;20421;-67
2021/01/05 10:36:19;;;;;;;34.90;21.13;;;;;;;3.02;73.06;96105.13;5064443;28;20773;-66
2021/01/05 10:38:48;;;;;;;33.30;19.60;;;;;;;3.11;73.68;96103.50;5061068;28;20696;-67
2021/01/05 10:41:15;;;;;;;39.30;21.20;;;;;;;3.31;73.01;96100.94;5070900;28;20427;-67
2021/01/05 10:43:42;;;;;;;36.87;20.33;;;;;;;3.45;72.54;96092.78;5070217;28;20429;-66
2021/01/05 10:46:08;;;;;;;36.40;21.27;;;;;;;3.45;71.80;96082.44;5072692;28;20435;-67
2021/01/05 10:48:34;;;;;;;40.40;20.83;;;;;;;3.23;73.04;96084.31;5062834;28;20445;-66
2021/01/05 10:51:00;;;;;;;38.43;21.13;;;;;;;3.30;72.67;96082.03;5072994;28;20448;-67
2021/01/05 10:53:27;;;;;;;40.57;22.07;;;;;;;3.46;72.56;96078.09;5074137;28;20537;-67
2021/01/05 10:55:52;;;;;;;40.33;23.17;;;;;;;3.34;72.28;96072.19;5074002;28;20285;-67
2021/01/05 10:58:18;;;;;;;37.97;20.20;;;;;;;3.62;71.86;96072.34;5075362;28;20451;-67
2021/01/05 11:00:45;;;;;;;39.47;20.87;;;;;;;2.83;73.64;96074.03;5066199;28;20171;-68
2021/01/05 11:03:11;;;;;;;39.13;21.07;;;;;;;3.43;72.43;96076.56;5072336;28;20167;-68
2021/01/05 11:05:37;;;;;;;35.30;20.57;;;;;;;3.86;71.44;96076.31;5061282;28;20475;-66
2021/01/05 11:08:03;;;;;;;39.27;20.70;;;;;;;3.97;70.22;96079.53;5073498;28;20174;-68
2021/01/05 11:10:28;;;;;;;32.37;19.37;;;;;;;4.04;70.54;96079.00;5074544;28;20174;-66
2021/01/05 11:12:57;;;;;;;33.57;18.50;;;;;;;4.02;69.74;96073.97;5074235;28;20448;-68
2021/01/05 11:15:23;;;;;;;34.23;19.27;;;;;;;3.94;69.43;96068.63;5073665;28;20592;-67
2021/01/05 11:17:49;;;;;;;33.03;19.67;;;;;;;3.89;70.01;96057.88;5066620;28;20416;-68
2021/01/05 11:20:16;;;;;;;31.17;18.67;;;;;;;4.08;69.54;96060.44;5060246;28;20444;-66
2021/01/05 11:22:42;;;;;;;35.13;19.07;;;;;;;4.03;69.04;96059.22;5066034;28;20202;-67
2021/01/05 11:25:10;;;;;;;37.13;19.50;;;;;;;3.80;69.27;96055.16;5070912;28;20433;-67
2021/01/05 11:27:36;;;;;;;33.20;19.43;;;;;;;3.90;69.41;96052.56;5069164;28;20413;-68
2021/01/05 11:30:03;;;;;;;35.97;18.80;;;;;;;4.25;69.15;96045.13;5073427;28;20423;-66
2021/01/05 11:32:28;;;;;;;34.07;20.23;;;;;;;4.37;68.72;96051.75;5071175;28;20226;-66
2021/01/05 11:34:54;;;;;;;28.67;17.23;;;;;;;4.27;68.90;96056.16;5074109;28;20475;-66
2021/01/05 11:37:21;;;;;;;33.23;19.90;;;;;;;4.35;68.44;96051.09;5074174;28;20182;-69
2021/01/05 11:39:48;;;;;;;33.13;19.10;;;;;;;4.44;68.29;96055.41;5071742;28;20193;-67